createdAt,value
2019-02-27T00:01:31.148Z,2.50
2019-02-27T00:06:36.881Z,2.40
2019-02-27T00:11:46.011Z,2.40
2019-02-27T00:16:50.649Z,2.40
2019-02-27T00:21:56.529Z,2.50
2019-02-27T00:27:02.560Z,2.60
2019-02-27T00:32:08.147Z,2.70
2019-02-27T00:37:14.011Z,2.50
2019-02-27T00:42:22.340Z,2.40
2019-02-27T00:47:28.553Z,2.30
2019-02-27T00:52:34.514Z,2.30
2019-02-27T00:57:40.463Z,2.20
2019-02-27T01:02:46.921Z,2.10
2019-02-27T01:07:54.675Z,2.00
2019-02-27T01:13:00.649Z,1.90
2019-02-27T01:18:06.666Z,2.00
2019-02-27T01:23:12.781Z,2.10
2019-02-27T01:28:19.985Z,2.40
2019-02-27T01:33:26.644Z,2.30
2019-02-27T01:38:37.839Z,2.10
2019-02-27T01:43:42.372Z,1.90
2019-02-27T01:48:49.423Z,1.80
2019-02-27T01:53:56.622Z,1.70
2019-02-27T01:59:02.618Z,1.60
2019-02-27T02:04:09.929Z,1.60
2019-02-27T02:09:36.526Z,1.50
2019-02-27T02:15:27.912Z,1.50
2019-02-27T02:21:04.107Z,1.50
2019-02-27T02:26:41.676Z,1.40
2019-02-27T02:32:07.133Z,1.40
2019-02-27T02:37:41.744Z,1.50
2019-02-27T02:43:26.596Z,1.30
2019-02-27T02:48:52.035Z,1.20
2019-02-27T02:54:42.852Z,1.10
2019-02-27T03:00:17.331Z,1.30
2019-02-27T03:06:15.838Z,1.30
2019-02-27T03:12:09.675Z,1.00
2019-02-27T03:17:55.156Z,0.90
2019-02-27T03:23:50.608Z,1.00
2019-02-27T03:29:26.296Z,1.10
2019-02-27T03:34:59.212Z,1.00
2019-02-27T03:40:45.093Z,1.00
2019-02-27T03:46:49.169Z,1.10
2019-02-27T03:52:38.486Z,1.10
2019-02-27T03:58:30.037Z,1.10
2019-02-27T04:04:30.639Z,0.90
2019-02-27T04:09:36.784Z,0.90
2019-02-27T04:14:43.694Z,1.00
2019-02-27T04:19:50.532Z,1.00
2019-02-27T04:24:57.804Z,1.10
2019-02-27T04:30:05.277Z,1.00
2019-02-27T04:35:10.863Z,0.80
2019-02-27T04:40:16.826Z,0.90
2019-02-27T04:45:22.966Z,0.80
2019-02-27T04:50:31.159Z,0.90
2019-02-27T04:55:37.777Z,0.90
2019-02-27T05:00:44.232Z,0.80
2019-02-27T05:05:50.972Z,0.70
2019-02-27T05:10:58.553Z,0.70
2019-02-27T05:16:05.628Z,0.60
2019-02-27T05:21:12.575Z,0.70
2019-02-27T05:26:18.370Z,0.70
2019-02-27T05:31:28.357Z,0.70
2019-02-27T05:36:35.170Z,0.60
2019-02-27T05:41:41.929Z,0.40
2019-02-27T05:46:48.928Z,0.40
2019-02-27T05:51:55.599Z,0.30
2019-02-27T05:57:02.337Z,0.30
2019-02-27T06:02:10.976Z,0.40
2019-02-27T06:07:18.777Z,0.40
2019-02-27T06:12:24.646Z,0.40
2019-02-27T06:17:30.999Z,0.50
2019-02-27T06:22:37.344Z,0.40
2019-02-27T06:27:44.448Z,0.50
2019-02-27T06:32:51.121Z,0.50
2019-02-27T06:37:58.189Z,0.50
2019-02-27T06:43:04.035Z,0.60
2019-02-27T06:48:10.413Z,0.70
2019-02-27T06:53:17.253Z,0.90
2019-02-27T06:58:23.029Z,1.10
2019-02-27T07:03:29.865Z,1.40
2019-02-27T07:08:38.165Z,1.70
2019-02-27T07:13:44.234Z,2.10
2019-02-27T07:18:51.477Z,2.60
2019-02-27T07:23:58.581Z,2.80
2019-02-27T07:29:05.492Z,3.00
2019-02-27T07:34:14.206Z,3.20
2019-02-27T07:39:20.435Z,3.40
2019-02-27T07:44:27.151Z,3.60
2019-02-27T07:49:34.490Z,3.70
2019-02-27T07:54:41.980Z,4.10
2019-02-27T07:59:49.218Z,4.70
2019-02-27T08:04:56.314Z,5.10
2019-02-27T08:10:04.587Z,5.40
2019-02-27T08:15:13.614Z,5.50
2019-02-27T08:20:21.061Z,5.20
2019-02-27T08:25:27.136Z,5.20
2019-02-27T08:30:33.744Z,5.20
2019-02-27T08:35:40.682Z,5.30
2019-02-27T08:40:47.833Z,5.40
2019-02-27T08:45:53.603Z,5.50
2019-02-27T08:51:05.662Z,5.40
2019-02-27T08:56:09.921Z,5.60
2019-02-27T09:01:19.030Z,6.00
2019-02-27T09:06:27.465Z,6.10
2019-02-27T09:11:32.859Z,6.30
2019-02-27T09:16:39.083Z,6.70
2019-02-27T09:21:45.707Z,6.70
2019-02-27T09:26:53.543Z,7.10
2019-02-27T09:32:00.543Z,7.40
2019-02-27T09:37:07.841Z,7.50
2019-02-27T09:42:13.714Z,7.20
2019-02-27T09:47:23.209Z,7.30
2019-02-27T09:52:30.760Z,7.40
2019-02-27T09:57:37.943Z,7.80
2019-02-27T10:02:46.396Z,8.30
2019-02-27T10:07:52.519Z,8.70
2019-02-27T10:12:59.840Z,9.30
2019-02-27T10:18:06.127Z,9.70
2019-02-27T10:23:16.132Z,9.60
2019-02-27T10:28:23.091Z,8.80
2019-02-27T10:33:29.610Z,8.20
2019-02-27T10:38:40.265Z,8.00
2019-02-27T10:43:44.464Z,8.30
2019-02-27T10:48:50.389Z,8.50
2019-02-27T10:54:02.336Z,8.50
2019-02-27T10:59:05.063Z,9.20
2019-02-27T11:04:11.746Z,12.00
2019-02-27T11:09:24.850Z,13.20
2019-02-27T11:14:32.696Z,13.10
2019-02-27T11:19:39.283Z,13.20
2019-02-27T11:24:49.041Z,14.30
2019-02-27T11:29:53.191Z,14.70
2019-02-27T11:35:01.102Z,15.40
2019-02-27T11:40:08.503Z,16.30
2019-02-27T11:45:14.606Z,16.80
2019-02-27T11:50:20.555Z,16.40
2019-02-27T11:55:26.346Z,16.80
2019-02-27T12:00:33.418Z,17.60
2019-02-27T12:05:39.257Z,19.10
2019-02-27T12:10:45.649Z,20.00
2019-02-27T12:15:51.681Z,21.70
2019-02-27T12:20:57.702Z,23.30
2019-02-27T12:26:04.725Z,22.40
2019-02-27T12:31:14.150Z,22.80
2019-02-27T12:36:20.135Z,23.50
2019-02-27T12:41:26.345Z,23.00
2019-02-27T12:46:34.193Z,22.50
2019-02-27T12:51:42.188Z,23.40
2019-02-27T12:56:48.926Z,23.20
2019-02-27T13:01:54.879Z,22.70
2019-02-27T13:07:00.864Z,22.00
2019-02-27T13:12:10.236Z,20.10
2019-02-27T13:17:17.758Z,18.80
2019-02-27T13:22:26.265Z,17.50
2019-02-27T13:27:36.340Z,16.30
2019-02-27T13:32:44.048Z,15.20
2019-02-27T13:37:50.999Z,14.60
2019-02-27T13:42:58.091Z,14.50
2019-02-27T13:48:05.877Z,14.90
2019-02-27T13:53:11.855Z,15.20
2019-02-27T13:58:21.705Z,15.10
2019-02-27T14:03:28.856Z,15.30
2019-02-27T14:08:35.473Z,15.00
2019-02-27T14:13:47.250Z,14.50
2019-02-27T14:18:54.299Z,15.20
2019-02-27T14:24:01.026Z,15.30
2019-02-27T14:29:08.110Z,15.00
2019-02-27T14:34:15.199Z,14.90
2019-02-27T14:39:29.662Z,15.10
2019-02-27T14:44:36.418Z,15.40
2019-02-27T14:49:42.970Z,15.20
2019-02-27T14:54:51.379Z,15.00
2019-02-27T14:59:58.205Z,15.10
2019-02-27T15:05:08.302Z,15.10
2019-02-27T15:10:13.550Z,15.00
2019-02-27T15:15:23.791Z,15.10
2019-02-27T15:20:29.928Z,15.10
2019-02-27T15:25:42.183Z,16.60
2019-02-27T15:30:46.629Z,17.40
2019-02-27T15:35:56.279Z,16.10
2019-02-27T15:41:05.673Z,15.10
2019-02-27T15:46:13.123Z,14.90
2019-02-27T15:51:22.481Z,14.70
2019-02-27T15:56:29.659Z,14.50
2019-02-27T16:01:39.031Z,14.50
2019-02-27T16:06:46.593Z,14.50
2019-02-27T16:11:53.732Z,14.40
2019-02-27T16:17:01.417Z,14.30
2019-02-27T16:22:09.466Z,13.90
2019-02-27T16:27:19.914Z,13.80
2019-02-27T16:32:29.266Z,13.80
2019-02-27T16:37:37.433Z,13.70
2019-02-27T16:42:45.155Z,13.20
2019-02-27T16:47:54.020Z,13.40
2019-02-27T16:53:04.571Z,13.00
2019-02-27T16:58:12.028Z,12.30
2019-02-27T17:03:18.590Z,12.10
2019-02-27T17:08:25.140Z,11.60
2019-02-27T17:13:31.193Z,11.40
2019-02-27T17:18:37.307Z,10.90
2019-02-27T17:23:46.580Z,10.60
2019-02-27T17:29:09.719Z,10.20
2019-02-27T17:34:18.384Z,9.90
2019-02-27T17:39:28.938Z,9.60
2019-02-27T17:44:35.305Z,9.30
2019-02-27T17:49:42.656Z,9.20
2019-02-27T17:54:48.997Z,9.00
2019-02-27T17:59:55.450Z,8.80
2019-02-27T18:05:01.455Z,8.50
2019-02-27T18:10:20.629Z,8.50
2019-02-27T18:15:30.086Z,8.30
2019-02-27T18:20:36.783Z,8.00
2019-02-27T18:25:44.876Z,7.80
2019-02-27T18:30:53.147Z,7.70
2019-02-27T18:36:04.525Z,7.60
2019-02-27T18:41:15.074Z,7.90
2019-02-27T18:46:24.505Z,7.70
2019-02-27T18:51:29.959Z,7.30
2019-02-27T18:57:07.314Z,7.10
2019-02-27T19:02:19.516Z,7.00
2019-02-27T19:07:25.396Z,6.80
2019-02-27T19:12:33.186Z,6.60
2019-02-27T19:17:40.865Z,6.50
2019-02-27T19:22:48.540Z,6.50
2019-02-27T19:28:02.948Z,6.30
2019-02-27T19:33:16.516Z,6.20
2019-02-27T19:38:24.640Z,6.30
2019-02-27T19:43:30.600Z,6.30
2019-02-27T19:48:36.448Z,6.40
2019-02-27T19:53:43.209Z,6.40
2019-02-27T19:58:51.073Z,6.40
2019-02-27T20:03:56.705Z,6.40
2019-02-27T20:09:04.109Z,6.50
2019-02-27T20:14:11.040Z,6.40
2019-02-27T20:19:22.439Z,6.10
2019-02-27T20:24:26.579Z,5.80
2019-02-27T20:29:32.579Z,5.90
2019-02-27T20:34:42.680Z,5.90
2019-02-27T20:39:47.820Z,5.90
2019-02-27T20:44:54.799Z,5.80
2019-02-27T20:50:01.108Z,5.80
2019-02-27T20:55:07.531Z,5.70
2019-02-27T21:00:14.351Z,5.50
2019-02-27T21:05:23.166Z,5.20
2019-02-27T21:10:30.390Z,5.10
2019-02-27T21:15:38.825Z,5.10
2019-02-27T21:20:46.476Z,4.90
2019-02-27T21:25:54.090Z,4.80
2019-02-27T21:31:02.007Z,4.70
2019-02-27T21:36:08.581Z,4.60
2019-02-27T21:41:15.060Z,4.70
2019-02-27T21:46:22.734Z,4.80
2019-02-27T21:51:30.305Z,4.80
2019-02-27T21:56:37.593Z,4.80
2019-02-27T22:01:44.495Z,4.70
2019-02-27T22:06:51.352Z,4.60
2019-02-27T22:12:01.136Z,4.50
2019-02-27T22:17:08.903Z,4.50
2019-02-27T22:22:15.080Z,4.40
2019-02-27T22:27:20.927Z,4.10
2019-02-27T22:32:27.613Z,4.00
2019-02-27T22:37:34.744Z,4.00
2019-02-27T22:42:41.645Z,3.90
2019-02-27T22:47:48.774Z,3.80
2019-02-27T22:52:55.349Z,3.80
2019-02-27T22:58:01.763Z,3.80
2019-02-27T23:03:07.602Z,3.60
2019-02-27T23:08:14.981Z,3.80
2019-02-27T23:13:21.030Z,3.90
2019-02-27T23:18:27.826Z,3.90
2019-02-27T23:23:36.718Z,3.70
2019-02-27T23:28:42.409Z,3.60
2019-02-27T23:33:48.396Z,3.60
2019-02-27T23:38:56.528Z,3.80
2019-02-27T23:44:05.395Z,3.80
2019-02-27T23:49:20.535Z,3.60
2019-02-27T23:54:27.364Z,3.50
2019-02-27T23:59:35.599Z,3.30
